createdAt,value
2022-11-26T00:21:49.542Z,29.80
2022-11-26T00:24:29.013Z,28.40
2022-11-26T00:51:04.418Z,36.90
2022-11-26T00:53:43.903Z,29.30
2022-11-26T00:56:19.837Z,27.70
2022-11-26T01:02:10.715Z,32.60
2022-11-26T01:04:50.323Z,34.20
2022-11-26T01:07:19.074Z,40.10
2022-11-26T01:09:49.062Z,31.40
2022-11-26T01:18:56.600Z,29.80
2022-11-26T01:21:27.860Z,28.10
2022-11-26T01:23:56.222Z,26.20
2022-11-26T01:26:27.402Z,25.30
2022-11-26T01:28:56.183Z,26.30
2022-11-26T01:31:27.076Z,26.80
2022-11-26T01:33:56.565Z,25.80
2022-11-26T01:37:20.701Z,26.00
2022-11-26T01:39:48.261Z,34.60
2022-11-26T01:42:33.221Z,26.40
2022-11-26T01:45:02.426Z,28.80
2022-11-26T01:47:34.301Z,29.10
2022-11-26T01:50:29.161Z,30.30
2022-11-26T01:53:34.030Z,32.60
2022-11-26T01:56:46.413Z,31.60
2022-11-26T02:02:58.455Z,26.20
2022-11-26T02:05:31.631Z,26.50
2022-11-26T02:08:03.400Z,33.50
2022-11-26T02:10:35.491Z,39.70
2022-11-26T02:16:47.067Z,26.60
2022-11-26T02:19:17.565Z,27.30
2022-11-26T02:21:57.093Z,36.00
2022-11-26T02:24:41.266Z,26.20
2022-11-26T02:27:18.633Z,28.00
2022-11-26T02:30:06.643Z,22.60
2022-11-26T02:32:50.936Z,25.40
2022-11-26T02:35:51.017Z,27.60
2022-11-26T02:42:04.994Z,28.00
2022-11-26T02:44:45.531Z,28.20
2022-11-26T02:47:18.441Z,27.50
2022-11-26T02:49:51.330Z,28.20
2022-11-26T02:52:21.652Z,23.40
2022-11-26T02:54:50.787Z,24.20
2022-11-26T02:57:23.932Z,26.10
2022-11-26T02:59:54.652Z,26.00
2022-11-26T03:02:37.065Z,25.10
2022-11-26T03:05:09.349Z,26.60
2022-11-26T03:07:42.087Z,29.30
2022-11-26T03:10:14.151Z,28.00
2022-11-26T03:12:45.651Z,28.90
2022-11-26T03:15:17.218Z,29.50
2022-11-26T03:17:48.133Z,27.40
2022-11-26T03:20:20.283Z,25.30
2022-11-26T03:22:48.489Z,25.30
2022-11-26T06:45:50.900Z,28.20
2022-11-26T07:05:00.285Z,36.50
2022-11-26T07:07:39.714Z,33.10
2022-11-26T07:30:04.965Z,29.20
2022-11-26T07:33:23.677Z,27.20
2022-11-26T07:59:56.102Z,31.30
2022-11-26T08:19:36.506Z,26.00
2022-11-26T08:25:26.595Z,28.10
2022-11-26T08:31:47.923Z,33.80
2022-11-26T08:34:35.064Z,40.20
2022-11-26T08:37:15.591Z,35.30
2022-11-26T08:40:00.597Z,34.80
2022-11-26T08:42:41.995Z,37.10
2022-11-26T08:45:10.662Z,35.50
2022-11-26T08:47:43.592Z,29.20
2022-11-26T08:50:13.916Z,32.50
2022-11-26T08:52:44.184Z,35.20
2022-11-26T08:55:12.114Z,33.70
2022-11-26T08:57:42.195Z,36.40
2022-11-26T09:00:14.301Z,36.50
2022-11-26T09:02:43.839Z,42.30
2022-11-26T09:05:16.065Z,34.70
2022-11-26T09:07:48.927Z,28.60
2022-11-26T09:10:23.692Z,28.10
2022-11-26T09:12:53.943Z,26.60
2022-11-26T09:15:23.866Z,28.80
2022-11-26T09:17:51.755Z,24.00
2022-11-26T09:20:19.735Z,24.50
2022-11-26T09:22:47.548Z,28.50
2022-11-26T09:25:17.408Z,31.30
2022-11-26T09:27:46.764Z,30.00
2022-11-26T09:30:16.713Z,28.20
2022-11-26T09:32:46.434Z,25.20
2022-11-26T09:35:14.646Z,26.80
2022-11-26T09:37:51.262Z,27.10
2022-11-26T09:40:20.688Z,25.80
2022-11-26T09:43:01.956Z,25.30
2022-11-26T09:45:41.944Z,23.80
2022-11-26T09:48:19.353Z,24.30
2022-11-26T09:51:06.555Z,28.10
2022-11-26T09:53:44.114Z,24.20
2022-11-26T09:56:32.266Z,24.50
2022-11-26T09:59:07.016Z,25.70
2022-11-26T10:01:46.320Z,28.80
2022-11-26T10:04:37.405Z,39.60
2022-11-26T10:07:28.458Z,34.20
2022-11-26T10:10:19.016Z,26.80
2022-11-26T10:13:19.426Z,25.70
2022-11-26T10:16:02.373Z,29.80
2022-11-26T10:19:07.714Z,25.40
2022-11-26T10:21:58.739Z,25.90
2022-11-26T10:24:54.875Z,24.50
2022-11-26T10:27:37.045Z,25.60
2022-11-26T10:30:24.615Z,24.70
2022-11-26T10:32:55.115Z,24.10
2022-11-26T10:35:29.324Z,29.10
2022-11-26T10:38:00.207Z,26.00
2022-11-26T10:41:34.898Z,25.60
2022-11-26T10:43:56.913Z,23.60
2022-11-26T10:49:51.283Z,18.40
2022-11-26T11:02:40.978Z,25.20
2022-11-26T11:06:14.657Z,21.60
2022-11-26T11:22:26.274Z,30.20
2022-11-26T11:53:43.724Z,27.00
2022-11-26T11:56:25.112Z,19.60
2022-11-26T11:59:24.587Z,20.70
2022-11-26T12:02:04.132Z,22.50
2022-11-26T12:52:31.134Z,29.90
2022-11-26T12:55:16.132Z,36.80
2022-11-26T12:58:10.772Z,32.80
2022-11-26T13:03:21.876Z,30.40
2022-11-26T13:06:04.561Z,27.60
2022-11-26T13:08:56.283Z,27.50
2022-11-26T13:11:53.096Z,38.80
2022-11-26T13:15:01.061Z,29.50
2022-11-26T13:21:04.045Z,26.90
2022-11-26T13:24:13.506Z,27.50
2022-11-26T13:27:02.616Z,22.00
2022-11-26T13:30:15.476Z,23.50
2022-11-26T13:33:19.225Z,24.20
2022-11-26T13:36:25.045Z,22.30
2022-11-26T13:39:43.140Z,25.30
2022-11-26T13:53:55.734Z,22.50
2022-11-26T13:56:45.145Z,26.00
2022-11-26T14:14:32.642Z,27.80
2022-11-26T14:42:36.123Z,28.40
2022-11-26T14:45:22.646Z,30.30
2022-11-26T14:47:54.792Z,37.50
2022-11-26T14:50:28.625Z,32.90
2022-11-26T15:00:04.834Z,37.40
2022-11-26T15:03:03.683Z,30.10
2022-11-26T15:09:29.392Z,33.60
2022-11-26T15:13:35.553Z,33.80
2022-11-26T15:17:03.022Z,29.30
2022-11-26T15:20:36.275Z,34.10
2022-11-26T15:23:40.574Z,32.60
2022-11-26T15:36:10.475Z,29.90
2022-11-26T15:39:06.915Z,30.10
2022-11-26T15:42:22.756Z,29.10
2022-11-26T15:45:04.148Z,29.20
2022-11-26T15:47:51.325Z,31.30
2022-11-26T15:50:34.205Z,28.30
2022-11-26T15:53:14.024Z,31.60
2022-11-26T15:55:46.647Z,32.90
2022-11-26T15:58:38.033Z,31.30
2022-11-26T16:01:15.515Z,30.40
2022-11-26T16:03:46.905Z,32.70
2022-11-26T16:06:36.200Z,44.10
2022-11-26T16:09:17.738Z,53.80
2022-11-26T16:11:59.543Z,52.50
2022-11-26T16:14:40.348Z,51.60
2022-11-26T16:17:22.196Z,53.10
2022-11-26T16:19:59.679Z,65.50
2022-11-26T16:22:33.275Z,43.10
2022-11-26T16:25:18.946Z,32.20
2022-11-26T16:28:09.723Z,28.10
2022-11-26T16:30:39.665Z,28.40
2022-11-26T16:33:11.111Z,32.00
2022-11-26T16:40:22.035Z,31.90
2022-11-26T16:43:02.135Z,32.10
2022-11-26T16:45:58.577Z,29.60
2022-11-26T16:48:37.191Z,32.70
2022-11-26T16:51:06.687Z,30.20
2022-11-26T16:53:36.416Z,28.60
2022-11-26T16:56:14.734Z,32.30
2022-11-26T16:58:44.335Z,35.10
2022-11-26T17:04:47.899Z,32.90
2022-11-26T17:13:57.280Z,28.10
2022-11-26T17:26:30.066Z,34.50
2022-11-26T17:29:02.775Z,35.70
2022-11-26T17:31:35.376Z,48.00
2022-11-26T17:37:55.412Z,40.70
2022-11-26T17:40:42.740Z,32.60
2022-11-26T17:43:18.145Z,31.80
2022-11-26T17:46:01.889Z,39.00
2022-11-26T17:48:41.582Z,36.80
2022-11-26T17:51:22.037Z,41.70
2022-11-26T17:53:54.968Z,40.40
2022-11-26T17:56:24.954Z,34.40
2022-11-26T17:59:00.982Z,30.80
2022-11-26T18:01:40.512Z,34.00
2022-11-26T18:04:27.420Z,33.90
2022-11-26T18:07:14.135Z,35.40
2022-11-26T18:10:09.130Z,32.80
2022-11-26T18:13:15.521Z,35.10
2022-11-26T18:15:52.329Z,36.40
2022-11-26T18:18:29.470Z,36.50
2022-11-26T18:21:06.491Z,37.20
2022-11-26T18:23:43.156Z,38.60
2022-11-26T18:26:21.662Z,39.90
2022-11-26T18:29:07.517Z,38.90
2022-11-26T18:31:46.713Z,41.30
2022-11-26T18:34:30.870Z,44.20
2022-11-26T18:37:13.143Z,39.80
2022-11-26T18:39:55.013Z,35.40
2022-11-26T18:42:38.155Z,39.20
2022-11-26T18:45:17.626Z,34.40
2022-11-26T18:48:03.106Z,44.90
2022-11-26T18:50:37.764Z,49.20
2022-11-26T18:53:10.922Z,42.20
2022-11-26T18:55:40.135Z,36.80
2022-11-26T18:58:11.533Z,35.20
2022-11-26T19:00:54.258Z,36.10
2022-11-26T19:03:25.753Z,45.50
2022-11-26T19:06:03.578Z,42.70
2022-11-26T19:25:09.079Z,43.10
2022-11-26T19:28:07.907Z,44.40
2022-11-26T20:13:58.358Z,43.90
2022-11-26T20:33:26.444Z,44.70
2022-11-26T22:09:50.510Z,50.10
2022-11-26T22:12:47.026Z,50.30
2022-11-26T22:18:50.438Z,48.00
2022-11-26T22:21:41.583Z,45.50
2022-11-26T22:24:29.522Z,50.70
2022-11-26T22:27:37.547Z,50.60
2022-11-26T23:06:39.974Z,53.10
2022-11-26T23:12:58.223Z,47.10
2022-11-26T23:15:57.122Z,52.70
2022-11-26T23:18:45.512Z,50.20
2022-11-26T23:22:02.572Z,46.20
2022-11-26T23:28:00.708Z,47.50
2022-11-26T23:31:21.246Z,55.70
2022-11-26T23:34:29.249Z,52.20
2022-11-26T23:37:26.251Z,48.50
2022-11-26T23:46:44.350Z,48.70
2022-11-26T23:49:42.412Z,52.90
2022-11-26T23:52:59.966Z,52.10
2022-11-26T23:56:21.905Z,55.30
2022-11-26T23:59:02.633Z,54.90
